Latest Coastal Weather Observations for Kowanyama

IDQ60701

Issued at 10:31 am EST Friday 28 April 2017 (issued every 10 minutes, with the page automatically refreshed every 10 minutes)

About coastal observations | Map of coastal stations | Coastal observations for QLD | Marine services | Other Formats
Station Details ID: 029038 Name: KOWANYAMA AIRPORT Lat: -15.48 Lon: 141.75 Height: 9.6 m
Data from the previous 72 hours. | See also: Recent months at Kowanyama
Date/Time
EST
Temp
°C
Wind Pressure Rain since
9am
mm
Weather Cloud Vis
km
Sea
Height
m
Swell
Dir  Spd
kts
Gust
kts
hPa Trend Height
m
Period
s
Dir
28/10:30am 27.0 SE 9 13 1014.5 - 0.0 - - 10 - - - -
28/10:00am 25.9 SE 10 14 1014.6 - 0.0 - - 10 - - - -
28/09:30am 24.9 SSE 11 15 1014.7 - 0.0 - - 10 - - - -
28/09:00am 23.8 SSE 9 12 1014.6 - 0.0 - - 10 - - - -
28/08:30am 22.2 SSE 9 14 1014.4 - 0.0 - - 10 - - - -
28/08:00am 20.8 SSE 7 9 1014.3 - 0.0 - - 10 - - - -
28/07:30am 19.5 SSE 6 7 1014.1 - 0.0 - - 10 - - - -
28/07:00am 18.3 SSE 5 6 1013.7 - 0.0 - - 10 - - - -
28/06:30am 18.5 SSE 5 7 1013.2 - 0.0 - - 10 - - - -
28/06:00am 18.9 SSE 6 8 1012.9 - 0.0 - - 10 - - - -
28/05:30am 19.7 SSE 6 8 1012.7 - 0.0 - - 10 - - - -
28/05:00am 20.2 SSE 7 8 1012.6 - 0.0 - - 10 - - - -
28/04:30am 20.3 SSE 7 9 1012.6 - 0.0 - - 10 - - - -
28/04:00am 19.5 SSE 5 7 1012.6 - 0.0 - - 10 - - - -
28/03:30am 20.2 SE 5 6 1012.5 - 0.0 - - 10 - - - -
28/03:00am 21.6 SSE 7 9 1012.4 - 0.0 - - 10 - - - -
28/02:30am 21.7 SSE 7 10 1012.3 - 0.0 - - 10 - - - -
28/02:00am 22.2 SSE 7 11 1012.3 - 0.0 - - 10 - - - -
28/01:30am 22.5 S 7 11 1012.4 - 0.0 - - 10 - - - -
28/01:00am 22.6 S 8 11 1012.5 - 0.0 - - 10 - - - -
28/12:30am 22.8 S 8 11 1012.8 - 0.0 - - 10 - - - -
28/12:00am 22.7 S 7 8 1013.0 - 0.0 - - 10 - - - -
 
Date/Time
EST
Temp
°C
Wind Pressure Rain since
9am
mm
Weather Cloud Vis
km
Sea
Height
m
Swell
Dir  Spd
kts
Gust
kts
hPa Trend Height
m
Period
s
Dir
27/11:30pm 23.2 S 7 8 1013.1 - 0.0 - - 10 - - - -
27/11:00pm 23.9 S 7 9 1013.2 - 0.0 - - 10 - - - -
27/10:30pm 24.4 S 7 10 1013.1 - 0.0 - - 10 - - - -
27/10:00pm 24.5 SSW 6 11 1013.0 - 0.0 - - 10 - - - -
27/09:30pm 24.6 S 5 8 1012.8 - 0.0 - - 10 - - - -
27/09:00pm 24.8 S 5 6 1012.5 - 0.0 - - 10 - - - -
27/08:30pm 25.0 SW 4 6 1012.3 - 0.0 - - 10 - - - -
27/08:00pm 25.0 SW 3 4 1011.8 - 0.0 - - 10 - - - -
27/07:30pm 25.9 SW 4 6 1011.4 - 0.0 - - 10 - - - -
27/07:00pm 26.9 WSW 4 7 1011.2 - 0.0 - - 10 - - - -
27/06:30pm 28.8 S 4 4 1011.0 - 0.0 - - 10 - - - -
27/06:00pm 30.7 S 5 6 1010.8 - 0.0 - - 10 - - - -
27/05:30pm 32.1 SSE 6 9 1010.5 - 0.0 - - 10 - - - -
27/05:00pm 32.9 SSE 8 11 1010.2 - 0.0 - - 10 - - - -
27/04:30pm 33.2 S 9 12 1010.0 - 0.0 - - 10 - - - -
27/04:00pm 33.7 S 6 9 1010.0 - 0.0 - - 10 - - - -
27/03:30pm 33.8 SSE 9 13 1010.1 - 0.0 - - 10 - - - -
27/03:00pm 33.6 SSE 8 11 1010.2 - 0.0 - Mostly clear 10 - - - -
27/02:30pm 33.4 SSE 7 11 1010.6 - 0.0 - - 10 - - - -
27/02:00pm 33.4 SE 7 12 1011.0 - 0.0 - - 10 - - - -
27/01:30pm 32.5 S 8 14 1011.2 - 0.0 - - 10 - - - -
27/01:00pm 32.1 SE 9 12 1011.4 - 0.0 - - 10 - - - -
27/12:30pm 31.6 SSE 8 13 1011.9 - 0.0 - - 10 - - - -
27/12:00pm 31.5 SE 10 16 1012.6 - 0.0 - - 10 - - - -
27/11:30am 31.2 SE 10 14 1013.2 - 0.0 - - 10 - - - -
27/11:00am 30.1 SE 9 14 1013.8 - 0.0 - - 10 - - - -
27/10:30am 29.7 SE 12 16 1014.2 - 0.0 - - 10 - - - -
27/10:00am 29.2 SE 10 14 1014.1 - 0.0 - - 10 - - - -
27/09:30am 28.1 SE 12 16 1013.9 - 0.0 - - 10 - - - -
27/09:00am 26.8 SSE 11 17 1013.5 - 0.0 - Cloudy 10 - - - -
27/08:30am 26.9 SSE 9 11 1013.3 - 0.0 - - 10 - - - -
27/08:00am 24.9 SSE 6 8 1013.0 - 0.0 - - 10 - - - -
27/07:30am 23.4 SSE 4 5 1012.8 - 0.0 - - 10 - - - -
27/07:00am 22.6 CALM 0 2 1012.3 - 0.0 - - 10 - - - -
27/06:30am 23.3 SE 3 4 1011.7 - 0.0 - - 10 - - - -
27/06:00am 23.4 SE 5 6 1011.3 - 0.0 - Mostly clear 10 - - - -
27/05:30am 23.3 ENE 4 6 1011.3 - 0.0 - - 10 - - - -
27/05:00am 24.2 ESE 4 5 1011.3 - 0.0 - - 10 - - - -
27/04:30am 24.2 S 6 8 1011.1 - 0.0 - - 10 - - - -
27/04:00am 24.4 S 4 5 1010.8 - 0.0 - - 10 - - - -
27/03:30am 24.5 S 3 5 1011.0 - 0.0 - - 10 - - - -
27/03:00am 24.9 SE 3 4 1010.9 - 0.0 - Cloudy 10 - - - -
27/02:30am 25.0 SSE 4 5 1011.3 - 0.0 - - 10 - - - -
27/02:00am 24.9 SSE 5 6 1011.6 - 0.0 - - 10 - - - -
27/01:30am 24.7 SSE 4 4 1011.8 - 0.0 - - 10 - - - -
27/01:00am 24.6 S 3 4 1012.2 - 0.0 - - 10 - - - -
27/12:30am 24.7 S 3 3 1012.5 - 0.0 - - 10 - - - -
27/12:00am 25.0 S 3 4 1012.7 - 0.0 - Cloudy 10 - - - -
 
Date/Time
EST
Temp
°C
Wind Pressure Rain since
9am
mm
Weather Cloud Vis
km
Sea
Height
m
Swell
Dir  Spd
kts
Gust
kts
hPa Trend Height
m
Period
s
Dir
26/11:30pm 25.3 SSW 3 4 1012.8 - 0.0 - Partly cloudy 10 - - - -
26/11:00pm 25.3 S 3 4 1012.8 - 0.0 - Cloudy 10 - - - -
26/10:30pm 25.4 S 4 6 1012.8 - 0.0 - Partly cloudy 10 - - - -
26/10:00pm 25.7 SSW 6 7 1012.9 - 0.0 - - 10 - - - -
26/09:30pm 25.8 S 5 7 1012.8 - 0.0 - - 10 - - - -
26/09:00pm 25.9 SSW 5 8 1012.7 - 0.0 - - 10 - - - -
26/08:30pm 26.3 SW 4 6 1012.4 - 0.0 - - 10 - - - -
26/08:00pm 26.4 WSW 6 8 1012.1 - 0.0 - - 10 - - - -
26/07:30pm 26.0 NW 3 6 1011.7 - 0.0 - - 10 - - - -
26/07:00pm 26.7 CALM 0 0 1011.3 - 0.0 - - 10 - - - -
26/06:30pm 28.0 CALM 0 0 1010.9 - 0.0 - - 10 - - - -
26/06:00pm 30.1 ESE 1 3 1010.3 - 0.0 - - 10 - - - -
26/05:30pm 32.4 ESE 6 8 1009.7 - 0.0 - - 10 - - - -
26/05:00pm 33.1 SE 7 10 1009.5 - 0.0 - Partly cloudy 10 - - - -
26/04:30pm 33.4 ESE 7 10 1009.3 - 0.0 - Partly cloudy 10 - - - -
26/04:00pm 33.2 ESE 8 13 1009.2 - 0.0 - Partly cloudy 10 - - - -
26/03:30pm 33.6 ESE 7 10 1009.3 - 0.0 - - 10 - - - -
26/03:00pm 33.4 SE 9 13 1009.7 - 0.0 - Mostly clear 10 - - - -
26/02:30pm 33.1 E 8 11 1010.1 - 0.0 - Partly cloudy 10 - - - -
26/02:00pm 33.5 ESE 7 11 1010.3 - 0.0 - - 10 - - - -
26/01:30pm 32.7 ESE 7 12 1010.6 - 0.0 - Partly cloudy 10 - - - -
26/01:00pm 32.2 ESE 9 13 1011.0 - 0.0 - - 10 - - - -
26/12:30pm 32.1 SE 8 11 1011.5 - 0.0 - - 10 - - - -
26/12:00pm 31.8 E 6 10 1012.0 - 0.0 - - 10 - - - -
26/11:30am 30.6 E 8 13 1012.3 - 0.0 - - 10 - - - -
26/11:00am 29.5 E 7 9 1013.0 - 0.0 - - 10 - - - -
26/10:30am 29.8 ENE 6 10 1013.3 - 0.0 - - 10 - - - -
26/10:00am 29.5 ENE 5 8 1013.5 - 0.0 - - 10 - - - -
26/09:30am 27.8 E 8 11 1013.6 - 0.0 - - 10 - - - -
26/09:00am 27.1 E 7 10 1013.6 - 0.0 - - 10 - - - -
26/08:30am 25.8 ENE 5 8 1013.4 - 0.0 - - 10 - - - -
26/08:00am 24.9 E 4 7 1013.3 - 0.0 - - 10 - - - -
26/07:30am 24.1 E 4 6 1013.2 - 0.0 - - 10 - - - -
26/07:00am 23.5 E 4 5 1012.7 - 0.0 - - 10 - - - -
26/06:30am 23.5 ENE 4 5 1012.3 - 0.0 - - 10 - - - -
26/06:00am 23.5 ENE 4 6 1011.9 - 0.0 - - 10 - - - -
26/05:30am 23.3 CALM 0 0 1011.7 - 0.0 - - 10 - - - -
26/05:00am 23.5 NE 2 4 1011.5 - 0.0 - - 10 - - - -
26/04:30am 23.9 E 3 5 1011.3 - 0.0 - - 10 - - - -
26/04:00am 24.1 CALM 0 0 1011.1 - 0.0 - - 10 - - - -
26/03:30am 24.4 SE 4 5 1011.1 - 0.0 - - 10 - - - -
26/03:00am 24.8 NNE 3 4 1011.3 - 0.0 - Partly cloudy 10 - - - -
26/02:30am 24.8 NE 3 4 1011.6 - 0.0 - Partly cloudy 10 - - - -
26/02:00am 24.7 ENE 3 5 1011.7 - 0.0 - Partly cloudy 10 - - - -
26/01:30am 24.5 E 4 5 1011.9 - 0.0 - - 10 - - - -
26/01:00am 24.5 E 3 4 1012.0 - 0.0 - - 10 - - - -
26/12:30am 24.1 E 4 5 1012.2 - 0.0 - - 10 - - - -
26/12:00am 24.5 CALM 0 0 1012.4 - 0.0 - - 10 - - - -
 
Date/Time
EST
Temp
°C
Wind Pressure Rain since
9am
mm
Weather Cloud Vis
km
Sea
Height
m
Swell
Dir  Spd
kts
Gust
kts
hPa Trend Height
m
Period
s
Dir
25/11:30pm 24.8 CALM 0 0 1012.4 - 0.0 - Partly cloudy 10 - - - -
25/11:00pm 24.8 CALM 0 0 1012.5 - 0.0 - Partly cloudy 10 - - - -
25/10:30pm 24.9 CALM 0 0 1012.7 - 0.0 - Partly cloudy 10 - - - -
25/10:00pm 25.0 CALM 0 0 1012.8 - 0.0 - Partly cloudy 10 - - - -
25/09:30pm 25.3 CALM 0 0 1012.8 - 0.0 - - 10 - - - -
25/09:00pm 25.6 CALM 0 0 1012.6 - 0.0 - - 10 - - - -
25/08:30pm 26.2 SW 1 3 1012.3 - 0.0 - Partly cloudy 10 - - - -
25/08:00pm 26.7 W 1 3 1011.9 - 0.0 - Cloudy 10 - - - -
25/07:30pm 26.7 W 6 8 1011.5 - 0.0 - Partly cloudy 10 - - - -
25/07:00pm 27.1 CALM 0 0 1011.1 - 0.0 - - 10 - - - -
25/06:30pm 28.0 ESE 3 3 1010.8 - 0.0 - - 10 - - - -
25/06:00pm 30.0 ESE 3 4 1010.3 - 0.0 - - 10 - - - -
25/05:30pm 31.6 ESE 5 6 1010.0 - 0.0 - - 10 - - - -
25/05:00pm 32.5 SE 6 8 1009.7 - 0.0 - - 10 - - - -
25/04:30pm 32.9 SE 6 8 1009.7 - 0.0 - - 10 - - - -
25/04:00pm 32.9 ESE 6 9 1009.6 - 0.0 - - 10 - - - -
25/03:30pm 33.1 E 5 8 1009.8 - 0.0 - - 10 - - - -
25/03:00pm 32.5 ESE 4 7 1010.0 - 0.0 - - 10 - - - -
25/02:30pm 32.5 ESE 6 7 1010.4 - 0.0 - - 10 - - - -
25/02:00pm 32.7 SE 8 11 1010.7 - 0.0 - - 10 - - - -
25/01:30pm 32.7 ESE 9 14 1011.0 - 0.0 - - 10 - - - -
25/01:00pm 32.4 ESE 8 12 1011.5 - 0.0 - - 10 - - - -
25/12:30pm 32.3 ESE 8 13 1011.8 - 0.0 - - 10 - - - -
25/12:00pm 31.1 ESE 7 11 1012.3 - 0.0 - - 10 - - - -
25/11:30am 31.9 ESE 7 11 1012.7 - 0.0 - - 10 - - - -
25/11:00am 30.4 E 8 11 1013.3 - 0.0 - - 10 - - - -

Other Formats:

Comma delimited format used in spreadsheet applications
http://www.bom.gov.au/fwo/IDQ60701/IDQ60701.94268.axf

JavaScript Object Notation format (JSON) in row-major order
http://www.bom.gov.au/fwo/IDQ60701/IDQ60701.94268.json